createdAt,value
2019-02-25T00:01:02.132Z,12.03
2019-02-25T00:03:53.605Z,9.45
2019-02-25T00:06:44.721Z,9.33
2019-02-25T00:09:35.559Z,12.33
2019-02-25T00:12:27.348Z,8.33
2019-02-25T00:15:18.739Z,6.83
2019-02-25T00:18:11.920Z,11.35
2019-02-25T00:21:03.135Z,8.48
2019-02-25T00:23:54.336Z,9.83
2019-02-25T00:26:44.882Z,9.85
2019-02-25T00:29:36.407Z,15.48
2019-02-25T00:32:26.828Z,11.55
2019-02-25T00:35:17.931Z,12.20
2019-02-25T00:38:09.492Z,5.10
2019-02-25T00:41:03.548Z,10.85
2019-02-25T00:43:55.107Z,11.78
2019-02-25T00:46:50.035Z,10.50
2019-02-25T00:49:40.622Z,3.85
2019-02-25T00:52:34.912Z,10.03
2019-02-25T00:55:25.862Z,11.95
2019-02-25T00:58:17.692Z,8.25
2019-02-25T01:01:09.433Z,14.65
2019-02-25T01:04:00.843Z,7.17
2019-02-25T01:06:54.959Z,10.20
2019-02-25T01:09:46.942Z,7.22
2019-02-25T01:12:38.295Z,13.58
2019-02-25T01:15:30.097Z,9.30
2019-02-25T01:18:21.794Z,12.95
2019-02-25T01:21:13.058Z,11.93
2019-02-25T01:24:04.610Z,19.85
2019-02-25T01:26:55.947Z,6.03
2019-02-25T01:29:47.454Z,14.87
2019-02-25T01:32:38.122Z,10.15
2019-02-25T01:35:28.183Z,16.37
2019-02-25T01:38:19.790Z,7.72
2019-02-25T01:41:10.646Z,11.25
2019-02-25T01:44:02.037Z,12.47
2019-02-25T01:46:52.625Z,5.97
2019-02-25T01:49:43.328Z,6.83
2019-02-25T01:52:35.039Z,11.45
2019-02-25T01:55:25.751Z,13.13
2019-02-25T01:58:17.976Z,10.00
2019-02-25T02:01:09.867Z,10.78
2019-02-25T02:04:00.956Z,15.60
2019-02-25T02:06:51.899Z,10.32
2019-02-25T02:09:44.631Z,12.40
2019-02-25T02:15:26.309Z,13.30
2019-02-25T02:18:17.538Z,18.02
2019-02-25T02:21:10.854Z,5.85
2019-02-25T02:24:01.799Z,13.58
2019-02-25T02:26:53.281Z,8.93
2019-02-25T02:29:46.061Z,15.23
2019-02-25T02:32:37.505Z,10.88
2019-02-25T02:35:28.295Z,11.10
2019-02-25T02:38:19.731Z,14.80
2019-02-25T02:41:10.707Z,14.40
2019-02-25T02:44:01.779Z,15.48
2019-02-25T02:46:59.086Z,15.18
2019-02-25T02:49:49.838Z,7.92
2019-02-25T02:52:41.118Z,13.58
2019-02-25T02:55:35.437Z,20.15
2019-02-25T03:00:22.785Z,13.50
2019-02-25T03:03:17.102Z,13.53
2019-02-25T03:06:10.700Z,15.63
2019-02-25T03:09:18.309Z,21.17
2019-02-25T03:12:06.975Z,10.85
2019-02-25T03:15:00.413Z,13.95
2019-02-25T03:24:15.857Z,8.98
2019-02-25T03:27:10.163Z,11.03
2019-02-25T03:30:03.152Z,7.85
2019-02-25T03:32:55.791Z,10.78
2019-02-25T03:35:49.778Z,11.65
2019-02-25T03:38:44.118Z,10.38
2019-02-25T03:47:43.249Z,17.50
2019-02-25T03:50:36.004Z,12.95
2019-02-25T03:53:31.170Z,17.67
2019-02-25T03:56:34.827Z,14.65
2019-02-25T03:59:28.116Z,24.57
2019-02-25T04:02:21.345Z,19.30
2019-02-25T04:05:15.244Z,11.40
2019-02-25T04:08:08.527Z,15.00
2019-02-25T04:11:06.299Z,13.83
2019-02-25T04:14:07.363Z,21.07
2019-02-25T04:20:39.891Z,13.62
2019-02-25T04:23:34.247Z,14.10
2019-02-25T04:26:27.876Z,12.73
2019-02-25T04:29:21.562Z,15.05
2019-02-25T04:32:15.014Z,16.27
2019-02-25T04:35:10.972Z,12.23
2019-02-25T04:38:04.503Z,9.90
2019-02-25T04:40:57.877Z,8.45
2019-02-25T04:43:50.759Z,7.60
2019-02-25T04:46:44.273Z,15.65
2019-02-25T04:49:42.866Z,13.45
2019-02-25T04:52:38.657Z,12.13
2019-02-25T04:55:32.056Z,13.15
2019-02-25T04:58:27.092Z,7.28
2019-02-25T05:01:20.681Z,6.22
2019-02-25T05:04:15.221Z,11.90
2019-02-25T05:07:09.275Z,13.93
2019-02-25T05:10:02.670Z,15.80
2019-02-25T05:13:02.357Z,18.10
2019-02-25T05:15:55.537Z,22.50
2019-02-25T05:19:05.431Z,16.73
2019-02-25T05:21:58.790Z,23.25
2019-02-25T05:24:52.226Z,14.53
2019-02-25T05:27:44.879Z,19.10
2019-02-25T05:30:39.354Z,21.73
2019-02-25T05:33:34.324Z,17.52
2019-02-25T05:36:27.581Z,24.67
2019-02-25T05:39:21.230Z,18.62
2019-02-25T05:42:14.985Z,13.10
2019-02-25T05:45:10.913Z,19.48
2019-02-25T05:48:04.877Z,14.05
2019-02-25T05:51:00.306Z,17.27
2019-02-25T05:53:59.004Z,19.30
2019-02-25T05:56:53.635Z,13.48
2019-02-25T05:59:52.629Z,16.62
2019-02-25T06:02:46.373Z,7.12
2019-02-25T06:05:39.890Z,15.58
2019-02-25T06:08:34.002Z,16.30
2019-02-25T06:11:28.151Z,10.15
2019-02-25T06:14:21.794Z,12.98
2019-02-25T06:17:16.181Z,17.62
2019-02-25T06:20:12.756Z,14.60
2019-02-25T06:23:04.994Z,18.40
2019-02-25T06:25:57.798Z,20.17
2019-02-25T06:28:52.105Z,23.05
2019-02-25T06:31:46.657Z,10.65
2019-02-25T06:34:43.561Z,13.48
2019-02-25T06:37:37.746Z,21.60
2019-02-25T06:40:30.397Z,15.23
2019-02-25T06:43:23.551Z,17.23
2019-02-25T06:46:17.731Z,20.50
2019-02-25T06:49:10.931Z,17.45
2019-02-25T06:54:59.056Z,14.68
2019-02-25T06:57:52.566Z,21.23
2019-02-25T07:00:45.905Z,12.53
2019-02-25T07:03:39.630Z,19.15
2019-02-25T07:06:33.613Z,8.53
2019-02-25T07:09:27.875Z,8.30
2019-02-25T07:12:28.280Z,15.72
2019-02-25T07:15:35.755Z,9.30
2019-02-25T07:18:47.384Z,19.27
2019-02-25T07:21:42.207Z,15.78
2019-02-25T07:24:41.698Z,15.55
2019-02-25T07:27:46.141Z,17.32
2019-02-25T07:45:58.160Z,18.80
2019-02-25T07:48:52.868Z,35.23
2019-02-25T07:51:50.183Z,22.42
2019-02-25T07:54:51.008Z,17.10
2019-02-25T07:58:00.686Z,21.70
2019-02-25T08:00:55.340Z,19.52
2019-02-25T08:03:53.895Z,15.70
2019-02-25T08:07:04.338Z,24.27
2019-02-25T08:10:06.469Z,36.17
2019-02-25T08:13:07.555Z,18.77
2019-02-25T08:16:05.358Z,16.02
2019-02-25T08:19:06.138Z,13.68
2019-02-25T08:22:06.387Z,20.25
2019-02-25T08:25:02.992Z,22.70
2019-02-25T08:28:09.203Z,23.80
2019-02-25T08:31:11.224Z,16.90
2019-02-25T08:34:34.942Z,20.15
2019-02-25T08:37:36.923Z,21.02
2019-02-25T08:40:42.724Z,34.27
2019-02-25T08:43:41.220Z,29.35
2019-02-25T08:46:36.310Z,17.32
2019-02-25T08:49:33.117Z,31.52
2019-02-25T08:52:27.377Z,21.10
2019-02-25T08:55:25.504Z,20.43
2019-02-25T08:58:26.481Z,14.50
2019-02-25T09:01:20.950Z,22.93
2019-02-25T09:04:21.214Z,21.73
2019-02-25T09:07:17.044Z,23.22
2019-02-25T09:10:14.121Z,26.93
2019-02-25T09:13:07.881Z,20.50
2019-02-25T09:16:01.232Z,22.80
2019-02-25T09:18:57.930Z,22.48
2019-02-25T09:21:52.567Z,27.45
2019-02-25T09:24:45.915Z,22.07
2019-02-25T09:27:40.294Z,21.80
2019-02-25T09:33:25.287Z,28.25
2019-02-25T09:36:19.106Z,30.17
2019-02-25T09:39:14.330Z,22.60
2019-02-25T09:42:09.932Z,33.20
2019-02-25T09:45:03.753Z,20.82
2019-02-25T09:47:57.541Z,14.03
2019-02-25T09:50:53.872Z,26.90
2019-02-25T09:53:47.561Z,30.17
2019-02-25T09:56:43.443Z,39.90
2019-02-25T09:59:36.968Z,32.85
2019-02-25T10:02:30.492Z,27.50
2019-02-25T10:05:28.760Z,25.72
2019-02-25T10:08:22.630Z,31.27
2019-02-25T10:11:15.689Z,27.70
2019-02-25T10:19:53.859Z,34.45
2019-02-25T10:22:47.518Z,42.62
2019-02-25T10:25:44.260Z,27.60
2019-02-25T10:28:37.963Z,27.50
2019-02-25T10:31:31.741Z,34.70
2019-02-25T10:34:24.848Z,42.60
2019-02-25T10:37:18.483Z,31.55
2019-02-25T10:40:19.055Z,27.05
2019-02-25T10:43:11.283Z,23.55
2019-02-25T10:46:09.088Z,13.95
2019-02-25T10:49:11.145Z,22.73
2019-02-25T10:51:55.940Z,25.65
2019-02-25T10:54:52.443Z,29.40
2019-02-25T10:57:46.812Z,32.20
2019-02-25T11:00:41.598Z,31.60
2019-02-25T11:03:34.449Z,21.07
2019-02-25T11:06:29.165Z,20.65
2019-02-25T11:09:28.276Z,39.53
2019-02-25T11:12:23.689Z,15.15
2019-02-25T11:15:17.642Z,18.98
2019-02-25T11:18:11.323Z,22.80
2019-02-25T11:23:59.089Z,28.65
2019-02-25T11:26:54.121Z,20.25
2019-02-25T11:29:48.578Z,25.00
2019-02-25T11:32:42.895Z,15.90
2019-02-25T11:35:47.862Z,21.17
2019-02-25T11:38:42.803Z,22.13
2019-02-25T11:41:37.092Z,20.55
2019-02-25T11:44:31.283Z,18.30
2019-02-25T11:47:25.065Z,17.15
2019-02-25T11:50:21.614Z,22.87
2019-02-25T11:53:15.535Z,16.80
2019-02-25T11:56:12.167Z,20.48
2019-02-25T11:59:05.284Z,20.62
2019-02-25T12:01:59.265Z,17.92
2019-02-25T12:04:52.840Z,26.25
2019-02-25T12:07:46.473Z,24.18
2019-02-25T12:10:40.318Z,18.50
2019-02-25T12:13:33.791Z,17.17
2019-02-25T12:16:27.225Z,18.95
2019-02-25T12:19:23.472Z,19.73
2019-02-25T12:22:15.344Z,19.98
2019-02-25T12:25:11.092Z,20.97
2019-02-25T12:28:05.289Z,22.85
2019-02-25T12:30:59.690Z,18.17
2019-02-25T12:33:53.005Z,23.40
2019-02-25T12:36:46.719Z,35.13
2019-02-25T12:39:43.106Z,36.17
2019-02-25T12:42:36.803Z,26.52
2019-02-25T12:45:31.542Z,25.55
2019-02-25T12:48:26.200Z,29.87
2019-02-25T12:51:19.109Z,30.32
2019-02-25T12:54:13.355Z,21.10
2019-02-25T12:57:06.623Z,19.87
2019-02-25T12:59:59.509Z,22.37
2019-02-25T13:02:52.229Z,23.95
2019-02-25T13:05:48.306Z,30.85
2019-02-25T13:08:41.894Z,19.90
2019-02-25T13:11:35.071Z,27.00
2019-02-25T13:14:28.493Z,29.25
2019-02-25T13:17:21.479Z,33.88
2019-02-25T13:20:18.024Z,27.50
2019-02-25T13:23:13.474Z,20.40
2019-02-25T13:26:07.480Z,35.00
2019-02-25T13:29:01.682Z,30.60
2019-02-25T13:31:55.065Z,35.75
2019-02-25T13:34:50.109Z,26.77
2019-02-25T13:37:43.827Z,41.77
2019-02-25T13:40:36.670Z,41.58
2019-02-25T13:43:30.527Z,40.83
2019-02-25T13:46:23.719Z,35.70
2019-02-25T13:49:17.257Z,44.23
2019-02-25T13:55:36.795Z,41.60
2019-02-25T13:58:30.790Z,38.90
2019-02-25T14:01:24.692Z,25.60
2019-02-25T14:04:17.841Z,39.85
2019-02-25T14:07:12.559Z,37.15
2019-02-25T14:10:05.778Z,27.98
2019-02-25T14:12:59.873Z,40.38
2019-02-25T14:15:53.068Z,35.78
2019-02-25T14:18:46.439Z,24.63
2019-02-25T14:21:39.819Z,37.25
2019-02-25T14:24:34.033Z,39.48
2019-02-25T14:27:29.571Z,41.35
2019-02-25T14:30:34.166Z,41.00
2019-02-25T14:33:28.278Z,39.40
2019-02-25T14:36:21.494Z,41.60
2019-02-25T14:39:30.235Z,35.40
2019-02-25T14:42:26.045Z,43.05
2019-02-25T14:45:21.610Z,40.33
2019-02-25T14:48:18.138Z,35.03
2019-02-25T14:51:08.787Z,29.00
2019-02-25T14:54:02.933Z,42.55
2019-02-25T14:56:57.109Z,41.23
2019-02-25T14:59:51.036Z,30.52
2019-02-25T15:02:51.115Z,29.25
2019-02-25T15:06:08.418Z,44.05
2019-02-25T15:09:01.769Z,39.38
2019-02-25T15:12:01.555Z,30.60
2019-02-25T15:15:17.794Z,47.00
2019-02-25T15:18:51.059Z,52.33
2019-02-25T15:21:47.458Z,41.80
2019-02-25T15:24:40.103Z,36.65
2019-02-25T15:27:43.774Z,35.45
2019-02-25T15:30:39.635Z,42.30
2019-02-25T15:33:39.894Z,45.17
2019-02-25T15:36:37.374Z,39.42
2019-02-25T15:39:36.550Z,38.60
2019-02-25T15:42:30.174Z,38.00
2019-02-25T15:45:29.048Z,31.12
2019-02-25T15:48:24.206Z,33.20
2019-02-25T15:51:18.189Z,49.77
2019-02-25T15:54:12.972Z,37.40
2019-02-25T15:57:10.743Z,41.48
2019-02-25T16:00:06.983Z,35.83
2019-02-25T16:03:01.593Z,41.13
2019-02-25T16:06:01.582Z,50.75
2019-02-25T16:09:03.975Z,38.63
2019-02-25T16:15:30.517Z,38.55
2019-02-25T16:21:34.220Z,39.27
2019-02-25T16:24:34.177Z,49.93
2019-02-25T16:27:43.253Z,42.88
2019-02-25T16:30:41.777Z,41.92
2019-02-25T16:33:35.341Z,35.75
2019-02-25T16:36:32.813Z,40.75
2019-02-25T16:39:26.374Z,40.88
2019-02-25T16:42:26.162Z,48.60
2019-02-25T16:45:32.380Z,46.83
2019-02-25T16:48:24.227Z,44.98
2019-02-25T16:51:18.196Z,48.87
2019-02-25T16:54:13.140Z,37.25
2019-02-25T17:00:32.431Z,52.13
2019-02-25T17:03:30.531Z,53.78
2019-02-25T17:06:25.595Z,49.53
2019-02-25T17:09:23.283Z,45.73
2019-02-25T17:12:21.170Z,39.27
2019-02-25T17:15:17.264Z,45.90
2019-02-25T17:18:15.169Z,58.48
2019-02-25T17:21:12.762Z,49.42
2019-02-25T17:24:09.529Z,50.33
2019-02-25T17:27:09.040Z,47.38
2019-02-25T17:30:05.481Z,38.28
2019-02-25T17:33:05.460Z,55.90
2019-02-25T17:36:01.019Z,56.05
2019-02-25T17:39:10.865Z,51.10
2019-02-25T17:42:03.535Z,49.23
2019-02-25T17:44:59.815Z,50.73
2019-02-25T17:48:03.374Z,48.05
2019-02-25T17:50:57.247Z,55.43
2019-02-25T17:53:52.708Z,48.63
2019-02-25T17:56:47.962Z,61.55
2019-02-25T17:59:43.722Z,45.65
2019-02-25T18:02:40.214Z,45.63
2019-02-25T18:05:35.541Z,48.15
2019-02-25T18:08:30.012Z,46.28
2019-02-25T18:11:28.552Z,61.95
2019-02-25T18:14:37.042Z,47.35
2019-02-25T18:17:31.187Z,48.70
2019-02-25T18:20:27.421Z,59.30
2019-02-25T18:23:23.855Z,54.85
2019-02-25T18:26:18.865Z,60.80
2019-02-25T18:29:15.630Z,60.05
2019-02-25T18:32:10.109Z,63.28
2019-02-25T18:35:04.210Z,64.42
2019-02-25T18:38:04.810Z,76.35
2019-02-25T18:40:55.408Z,61.68
2019-02-25T18:43:53.090Z,64.77
2019-02-25T18:46:48.711Z,61.45
2019-02-25T18:49:45.242Z,74.70
2019-02-25T18:52:45.350Z,69.12
2019-02-25T18:55:35.776Z,67.42
2019-02-25T18:58:30.535Z,70.55
2019-02-25T19:01:23.343Z,75.22
2019-02-25T19:04:17.585Z,56.98
2019-02-25T19:07:12.727Z,72.90
2019-02-25T19:12:59.175Z,87.62
2019-02-25T19:15:53.103Z,80.95
2019-02-25T19:18:49.222Z,89.87
2019-02-25T19:21:41.568Z,95.90
2019-02-25T19:24:36.243Z,99.45
2019-02-25T19:27:29.564Z,117.90
2019-02-25T19:30:22.253Z,100.22
2019-02-25T19:33:19.259Z,106.72
2019-02-25T19:36:09.789Z,108.27
2019-02-25T19:39:04.911Z,105.35
2019-02-25T19:41:58.324Z,84.75
2019-02-25T19:44:50.830Z,78.50
2019-02-25T19:50:49.847Z,77.80
2019-02-25T19:53:33.956Z,45.35
2019-02-25T19:56:26.757Z,74.77
2019-02-25T19:59:21.608Z,80.72
2019-02-25T20:05:04.679Z,68.90
2019-02-25T20:07:58.701Z,62.23
2019-02-25T20:10:54.302Z,65.20
2019-02-25T20:13:47.233Z,70.03
2019-02-25T20:16:41.064Z,56.70
2019-02-25T20:19:33.928Z,61.25
2019-02-25T20:22:26.780Z,32.35
2019-02-25T20:25:21.133Z,47.20
2019-02-25T20:28:15.848Z,29.30
2019-02-25T20:31:10.107Z,34.83
2019-02-25T20:34:02.260Z,27.98
2019-02-25T20:36:57.112Z,44.20
2019-02-25T20:39:50.387Z,50.17
2019-02-25T20:42:44.436Z,46.58
2019-02-25T20:45:38.295Z,30.00
2019-02-25T20:48:30.463Z,52.10
2019-02-25T20:51:24.890Z,55.40
2019-02-25T20:54:18.581Z,61.55
2019-02-25T20:57:12.552Z,42.55
2019-02-25T21:00:07.393Z,45.95
2019-02-25T21:03:00.843Z,38.58
2019-02-25T21:05:53.334Z,65.97
2019-02-25T21:08:47.527Z,64.12
2019-02-25T21:11:41.755Z,58.87
2019-02-25T21:14:35.761Z,57.13
2019-02-25T21:17:30.765Z,58.90
2019-02-25T21:20:26.199Z,46.33
2019-02-25T21:23:18.596Z,69.47
2019-02-25T21:26:12.735Z,70.00
2019-02-25T21:29:07.131Z,80.50
2019-02-25T21:32:00.319Z,60.98
2019-02-25T21:34:55.306Z,85.95
2019-02-25T21:37:48.295Z,76.75
2019-02-25T21:40:43.834Z,63.73
2019-02-25T21:43:36.697Z,61.98
2019-02-25T21:46:31.592Z,71.75
2019-02-25T21:49:26.793Z,70.75
2019-02-25T21:52:18.550Z,78.55
2019-02-25T21:58:05.793Z,76.35
2019-02-25T22:00:58.556Z,74.03
2019-02-25T22:06:47.117Z,78.35
2019-02-25T22:09:41.868Z,66.57
2019-02-25T22:12:35.273Z,69.67
2019-02-25T22:15:27.217Z,74.10
2019-02-25T22:18:20.101Z,63.80
2019-02-25T22:21:14.907Z,67.65
2019-02-25T22:24:09.625Z,68.50
2019-02-25T22:27:02.836Z,74.20
2019-02-25T22:32:47.228Z,64.55
2019-02-25T22:38:32.245Z,73.52
2019-02-25T22:41:26.715Z,58.45
2019-02-25T22:44:19.494Z,51.13
2019-02-25T22:47:13.750Z,64.50
2019-02-25T22:50:08.529Z,54.95
2019-02-25T22:53:04.227Z,55.95
2019-02-25T22:55:57.030Z,75.97
2019-02-25T22:58:50.460Z,60.98
2019-02-25T23:01:44.228Z,45.70
2019-02-25T23:04:38.408Z,32.40
2019-02-25T23:07:32.243Z,34.15
2019-02-25T23:10:25.227Z,32.42
2019-02-25T23:13:22.459Z,36.05
2019-02-25T23:16:15.628Z,59.58
2019-02-25T23:19:11.901Z,38.28
2019-02-25T23:22:03.744Z,64.17
2019-02-25T23:24:59.698Z,44.33
2019-02-25T23:27:53.496Z,31.50
2019-02-25T23:30:46.713Z,48.25
2019-02-25T23:36:34.691Z,39.85
2019-02-25T23:39:27.551Z,34.38
2019-02-25T23:42:21.453Z,35.73
2019-02-25T23:45:20.225Z,31.07
2019-02-25T23:48:17.171Z,38.23
2019-02-25T23:51:11.953Z,27.65
2019-02-25T23:54:04.151Z,24.43
2019-02-25T23:56:59.580Z,23.52
2019-02-25T23:59:51.644Z,22.07
